LFLXLEXJ

Guest
Details From LFLX - Chateauroux Deols
To LEXJ - Santander
Flight Number -
Tags Generated
Created
Modified
Stats Distance 312 nm / 578 km
Max Altitude 0 ft / 0 m
Waypoints 3
Social Downloads 1
Likes 0
Share VATSIM

Download

Looking for another format? Having issues loading an existing format? Contact us
Advertisement - Login to hide

Notes

Generated

Route

LFLX MAGDA LEXJ

ID Type Via Altitude Latitude Longitude Leg Dist Tot Dist Heading (true) Name
O LFLX APT - 0 ft / 0 m 46.85056˚ 1.71917˚ - 0 nm - -
MAGDA FIX - 0 ft / 0 m 43.48816˚ -3.77539˚ 307 nm 307 nm 231° / 227° -
O LEXJ APT - 0 ft / 0 m 43.43078˚ -3.83392˚ 4 nm 312 nm 217° / 217° -

Altitude Profile

Advertisement - Login to hide

Weather


0- 5 10 15 20 25 30 35+ Temperature / ° C

Clouds and Precipitation
Forecast for 2017-12-17 18:00 UTC. Updated an hour ago

Ground ~20,000 ft ~40,000 ft Winds

LFLX

Details ICAO LFLX (CHR)
Name Chateauroux Deols
Region France
Timezone Europe/Paris (UTC+1.0)
Stats Elevation 529 ft / 161 m (AMSL)
Location 46.863750° 1.731667°
Runways 1
Magnetic Variation 0.526° E

METAR

LFLX 171430Z AUTO 28007KT 240V300 9999 BKN007 OVC011 05/03 Q1028 NOSIG

Decode

TAF

TAF AMD LFLX 171408Z 1714/1818 28006KT 9999 BKN007 TEMPO 1714/1717 SCT010 BKN060 TEMPO 1717/1721 3000 -DZ BKN003 BECMG 1800/1802 22008KT 6000 -RA BKN006 TEMPO 1801/1811 20015KT 2000 -DZRA OVC002 BECMG 1811/1813 36010KT 9999 NSW BKN025

Decode

Departure Runways

ID Width Length Bearing (true) Bearing (mag) Surface Threshold Offset Overrun Length
04 148 ft / 45 m 11,473 ft / 3,497 m 32.92° 32.39° Concrete 0 ft / 0 m 0 ft / 0 m
22 148 ft / 45 m 11,473 ft / 3,497 m 212.94° 212.41° Concrete 0 ft / 0 m 0 ft / 0 m

LEXJ

Details ICAO LEXJ (SDR)
Name Santander
Region Spain
Timezone Europe/Madrid (UTC+1.0)
Stats Elevation 16 ft / 5 m (AMSL)
Location 43.427188° -3.820470°
Runways 1
Magnetic Variation 0.912° W

METAR

LEXJ 171430Z 22006KT 9999 FEW030 BKN052 10/07 Q1032

Decode

TAF

TAF LEXJ 171400Z 1715/1815 21006KT 9999 SCT050 TX12/1814Z TN04/1806Z PROB40 TEMPO 1715/1719 27010KT

Decode

Destination Runways

ID Width Length Bearing (true) Bearing (mag) Surface Threshold Offset Overrun Length
11 148 ft / 45 m 7,597 ft / 2,316 m 110.20° 111.11° Asphalt 0 ft / 0 m 98 ft / 30 m
29 148 ft / 45 m 7,597 ft / 2,316 m 290.22° 291.13° Asphalt 0 ft / 0 m 0 ft / 0 m

Approach Navaids

Runway Type Ident Frequency Range Bearing (true) Bearing (mag) Slope Elevation
29 Localiser STA 110.90 MHz 18 nm / 33 km 290.19° 291.10° - 16 ft / 5 m (AMSL)
29 Glidescope STA 110.90 MHz 10 nm / 19 km 290.21° 291.12° 3.00° 16 ft / 5 m (AMSL)
29 DME STA 110.90 MHz 18 nm / 33 km - - - 26 ft / 8 m (AMSL)